Time;durP1;ratioP1;P1;durP2;ratioP2;P2;SDS_P1;SDS_P2;PMS_P1;PMS_P2;Temp;Humidity;BMP_temperature;BMP_pressure;BME280_temperature;BME280_humidity;BME280_pressure;Samples;Min_cycle;Max_cycle;Signal;HPM_P1;HPM_P2
2021/12/22 00:01:25;;;;;;;;;46.00;38.00;;;;;5.54;53.66;102087.19;6094893;23;45393;-83
2021/12/22 00:03:52;;;;;;;;;41.00;38.00;;;;;5.26;53.69;102046.66;6093558;23;45463;-83
2021/12/22 00:06:23;;;;;;;;;43.25;38.00;;;;;5.44;53.42;102082.81;6093973;23;45529;-83
2021/12/22 00:08:49;;;;;;;;;47.00;38.00;;;;;5.20;53.58;102054.63;6094899;23;45428;-83
2021/12/22 00:11:14;;;;;;;;;52.75;43.00;;;;;5.14;53.96;102050.19;6068455;23;45382;-83
2021/12/22 00:13:40;;;;;;;;;52.00;40.00;;;;;5.41;53.68;102093.38;6095259;23;45908;-82
2021/12/22 00:16:06;;;;;;;;;48.00;37.75;;;;;5.02;53.80;102051.09;6095576;23;45353;-83
2021/12/22 00:18:31;;;;;;;;;47.00;38.00;;;;;4.66;53.92;101983.28;6094325;23;45551;-83
2021/12/22 00:20:56;;;;;;;;;39.25;34.25;;;;;5.31;54.41;102089.84;6095205;23;45359;-83
2021/12/22 00:23:22;;;;;;;;;35.50;31.50;;;;;5.02;54.21;102035.22;6094134;23;45389;-82
2021/12/22 00:25:48;;;;;;;;;35.75;31.75;;;;;5.38;54.36;102088.09;6093975;23;45125;-83
2021/12/22 00:28:13;;;;;;;;;44.75;34.75;;;;;4.98;54.32;102012.31;6094893;23;45304;-83
2021/12/22 00:30:39;;;;;;;;;40.00;35.00;;;;;5.43;54.27;102083.66;6068241;23;45494;-83
2021/12/22 00:33:07;;;;;;;;;40.25;34.25;;;;;5.41;54.33;102078.41;6068526;23;46934;-83
2021/12/22 00:35:42;;;;;;;;;37.50;34.25;;;;;5.32;54.42;102057.25;6093897;23;45414;-83
2021/12/22 00:38:11;;;;;;;;;40.50;35.50;;;;;5.23;54.26;102044.91;6094087;23;45856;-83
2021/12/22 00:40:37;;;;;;;;;43.50;36.75;;;;;5.32;54.33;102065.19;6094162;23;45478;-83
2021/12/22 00:43:02;;;;;;;;;44.25;37.50;;;;;5.43;54.40;102078.38;6094243;23;46152;-83
2021/12/22 00:45:30;;;;;;;;;45.25;37.25;;;;;5.42;53.80;102074.84;6094248;23;45255;-83
2021/12/22 00:47:56;;;;;;;;;36.25;32.50;;;;;5.50;53.56;102070.47;6095075;23;45164;-83
2021/12/22 00:50:22;;;;;;;;;42.75;32.25;;;;;5.16;53.64;102008.81;6095070;23;45519;-83
2021/12/22 00:52:48;;;;;;;;;35.75;31.50;;;;;5.56;53.81;102076.63;6093164;23;45379;-83
2021/12/22 00:55:17;;;;;;;;;38.50;33.00;;;;;5.53;53.86;102072.22;6067347;23;45371;-83
2021/12/22 00:57:43;;;;;;;;;46.75;36.25;;;;;5.51;54.07;102079.28;6093746;23;45268;-83
2021/12/22 01:00:09;;;;;;;;;39.50;36.75;;;;;5.24;53.66;102030.84;6094441;23;45296;-83
2021/12/22 01:02:34;;;;;;;;;37.50;35.00;;;;;5.02;54.25;102011.44;6093384;23;45391;-82
2021/12/22 01:05:00;;;;;;;;;38.50;34.50;;;;;5.33;54.11;102069.56;6093543;23;45208;-83
2021/12/22 01:07:25;;;;;;;;;41.25;34.50;;;;;5.02;54.21;102022.03;6093404;23;45322;-83
2021/12/22 01:09:50;;;;;;;;;39.75;33.50;;;;;5.06;54.57;102041.41;6094885;23;45255;-83
2021/12/22 01:12:17;;;;;;;;;38.75;32.25;;;;;5.19;54.46;102068.72;6094946;23;45366;-83
2021/12/22 01:14:42;;;;;;;;;38.75;33.50;;;;;5.10;54.37;102066.06;6068168;23;45885;-83
2021/12/22 01:17:11;;;;;;;;;39.25;34.75;;;;;5.10;54.75;102087.19;6068378;23;45276;-83
2021/12/22 01:19:58;;;;;;;;;43.00;35.00;;;;;5.15;54.42;102096.91;6094259;23;45305;-83
2021/12/22 01:22:32;;;;;;;;;33.25;30.75;;;;;4.86;54.64;102041.38;6067867;23;46427;-83
2021/12/22 01:25:06;;;;;;;;;42.75;37.00;;;;;5.08;54.42;102081.94;6094271;23;45411;-83
2021/12/22 01:27:38;;;;;;;;;43.00;34.75;;;;;4.23;54.46;101936.56;6094408;23;45314;-83
2021/12/22 01:30:08;;;;;;;;;47.00;35.25;;;;;4.78;54.96;102033.47;6094861;23;45328;-83
2021/12/22 01:32:34;;;;;;;;;31.75;31.00;;;;;4.98;54.96;102067.81;6093739;23;45428;-83
2021/12/22 01:35:00;;;;;;;;;4.00;0.00;;;;;4.70;55.33;102031.69;6093724;23;45407;-83
2021/12/22 01:37:26;;;;;;;;;34.50;32.50;;;;;4.95;55.00;102066.94;6093530;23;45185;-83
2021/12/22 01:39:51;;;;;;;;;43.00;37.50;;;;;4.44;55.26;101977.97;6093846;23;45228;-83
2021/12/22 01:42:17;;;;;;;;;45.00;37.00;;;;;4.82;55.09;102053.72;6093999;23;45499;-83
2021/12/22 01:45:14;;;;;;;;;38.50;32.75;;;;;4.89;54.93;102061.63;6093712;23;45497;-83
2021/12/22 01:50:48;;;;;;;;;33.75;31.00;;;;;4.76;55.17;102042.28;6094822;23;45264;-83
2021/12/22 01:53:19;;;;;;;;;37.25;32.75;;;;;4.82;55.53;102061.66;6093867;23;46251;-83
2021/12/22 01:55:46;;;;;;;;;40.75;35.00;;;;;4.80;55.34;102065.16;6093536;23;45318;-83
2021/12/22 01:58:12;;;;;;;;;44.25;37.25;;;;;4.79;55.82;102066.91;6094025;23;45303;-83
2021/12/22 02:00:37;;;;;;;;;41.75;34.00;;;;;4.82;55.33;102066.94;6094508;23;45474;-83
2021/12/22 02:03:03;;;;;;;;;40.50;34.00;;;;;4.47;55.41;102006.13;6093024;23;47437;-83
2021/12/22 02:05:29;;;;;;;;;37.00;35.50;;;;;4.82;55.39;102063.38;6093762;23;45539;-82
2021/12/22 02:08:00;;;;;;;;;35.50;27.75;;;;;4.48;55.67;101988.53;6094099;23;45383;-82
2021/12/22 02:10:36;;;;;;;;;36.50;33.50;;;;;4.83;55.28;102047.56;6095122;23;45325;-83
2021/12/22 02:13:03;;;;;;;;;44.25;35.25;;;;;4.88;55.18;102052.84;6067634;23;48159;-82
2021/12/22 02:15:33;;;;;;;;;42.50;35.25;;;;;4.87;55.74;102048.47;6094036;23;45216;-83
2021/12/22 02:18:01;;;;;;;;;42.75;35.50;;;;;4.67;55.42;102013.22;6093652;23;45356;-83
2021/12/22 02:20:27;;;;;;;;;41.50;34.00;;;;;4.86;55.35;102042.25;6094244;23;45292;-83
2021/12/22 02:22:56;;;;;;;;;44.00;37.25;;;;;4.85;55.26;102032.59;6093239;23;46519;-82
2021/12/22 02:25:30;;;;;;;;;31.75;28.75;;;;;4.96;55.85;102055.47;6093905;23;45332;-83
2021/12/22 02:27:56;;;;;;;;;39.50;35.00;;;;;4.90;55.66;102047.56;6093921;23;45497;-83
2021/12/22 02:30:27;;;;;;;;;42.75;34.75;;;;;4.84;55.22;102051.06;6095426;23;45164;-83
2021/12/22 02:33:09;;;;;;;;;42.00;32.25;;;;;4.89;55.49;102053.72;6094396;23;45719;-84
2021/12/22 02:35:44;;;;;;;;;34.75;30.25;;;;;4.91;55.78;102052.84;6094944;23;45311;-83
2021/12/22 02:38:18;;;;;;;;;37.50;35.25;;;;;4.78;56.01;102033.47;6094696;23;45333;-83
2021/12/22 02:40:47;;;;;;;;;42.00;37.00;;;;;4.72;55.88;102014.97;6094723;23;45200;-82
2021/12/22 02:43:19;;;;;;;;;32.00;28.75;;;;;5.04;55.35;102061.66;6094257;23;46003;-80
2021/12/22 02:45:44;;;;;;;;;32.50;30.75;;;;;4.85;55.29;102018.50;6091368;23;45379;-79
2021/12/22 02:48:10;;;;;;;;;33.00;32.50;;;;;5.06;55.17;102066.06;6094337;23;45398;-79
2021/12/22 02:50:36;;;;;;;;;31.50;30.00;;;;;5.00;55.30;102038.75;6094476;23;45391;-78
2021/12/22 02:53:08;;;;;;;;;34.50;32.75;;;;;4.83;55.67;102018.50;6093937;23;45489;-79
2021/12/22 02:55:51;;;;;;;;;38.25;33.50;;;;;4.68;55.46;101992.06;6093635;23;45350;-80
2021/12/22 02:58:31;;;;;;;;;39.50;31.00;;;;;4.78;55.21;102016.75;6094669;23;45448;-79
2021/12/22 03:01:10;;;;;;;;;38.50;32.25;;;;;4.58;55.62;101996.47;6094723;23;45382;-81
2021/12/22 03:03:54;;;;;;;;;35.50;30.50;;;;;4.88;55.42;102046.69;6093721;23;45694;-80
2021/12/22 03:06:31;;;;;;;;;35.25;30.25;;;;;4.87;55.92;102045.81;6095191;23;45486;-82
2021/12/22 03:08:56;;;;;;;;;40.00;35.00;;;;;4.86;55.76;102036.97;6095082;23;45208;-81
2021/12/22 03:11:22;;;;;;;;;33.75;29.00;;;;;4.87;55.30;102032.59;6095897;23;45367;-80
2021/12/22 03:13:47;;;;;;;;;32.50;30.75;;;;;4.82;55.48;102015.84;6094953;23;45652;-80
2021/12/22 03:16:13;;;;;;;;;33.50;31.25;;;;;4.74;55.53;102005.28;6095156;23;45355;-80
2021/12/22 03:18:38;;;;;;;;;38.75;33.25;;;;;4.94;55.57;102036.09;6094880;23;45381;-80
2021/12/22 03:21:20;;;;;;;;;36.50;31.25;;;;;4.76;55.58;102011.44;6095324;23;45444;-81
2021/12/22 03:23:48;;;;;;;;;35.25;31.50;;;;;4.84;55.23;102022.00;6094622;23;46597;-81
2021/12/22 03:26:16;;;;;;;;;29.50;28.50;;;;;4.95;55.41;102046.69;6094551;23;45339;-82
2021/12/22 03:28:42;;;;;;;;;40.50;35.00;;;;;4.65;55.82;101998.22;6094742;23;45365;-81
2021/12/22 03:31:08;;;;;;;;;30.00;28.00;;;;;4.74;54.84;102015.84;6093782;23;45491;-80
2021/12/22 03:33:33;;;;;;;;;43.00;36.75;;;;;4.68;55.28;102007.03;6090428;23;46064;-80
2021/12/22 03:35:58;;;;;;;;;37.50;33.00;;;;;4.94;55.22;102054.59;6094382;23;45276;-80
2021/12/22 03:38:24;;;;;;;;;26.25;26.25;;;;;4.70;55.52;102008.78;6095015;23;45145;-80
2021/12/22 03:40:49;;;;;;;;;34.75;31.00;;;;;4.73;55.37;102008.81;6094630;23;45287;-80
2021/12/22 03:43:15;;;;;;;;;36.00;33.75;;;;;4.90;55.09;102045.81;6094463;23;46120;-80
2021/12/22 03:45:40;;;;;;;;;36.00;29.75;;;;;4.75;55.39;102012.34;6094104;23;45323;-80
2021/12/22 03:48:06;;;;;;;;;31.50;29.75;;;;;4.79;55.06;102014.09;6094541;23;45332;-80
2021/12/22 03:50:31;;;;;;;;;43.50;34.75;;;;;4.80;55.33;102022.88;6095436;23;45410;-80
2021/12/22 03:52:56;;;;;;;;;37.25;32.25;;;;;5.02;55.19;102045.81;6094913;23;45513;-81
2021/12/22 03:55:22;;;;;;;;;31.00;29.75;;;;;4.99;55.10;102031.72;6068594;23;45539;-80
2021/12/22 03:57:47;;;;;;;;;36.00;29.50;;;;;4.83;55.15;102007.94;6095237;23;45255;-80
2021/12/22 04:00:13;;;;;;;;;33.75;33.75;;;;;5.08;55.45;102047.59;6095213;23;45474;-80
2021/12/22 04:02:39;;;;;;;;;45.25;34.50;;;;;4.78;54.83;102001.78;6094286;23;45418;-81
2021/12/22 04:05:06;;;;;;;;;42.00;37.25;;;;;4.97;55.09;102026.44;6094211;23;45308;-80
2021/12/22 04:07:32;;;;;;;;;39.00;35.00;;;;;4.83;54.82;102007.94;6068473;23;45352;-80
2021/12/22 04:09:58;;;;;;;;;39.00;35.75;;;;;4.80;55.13;102001.75;6095405;23;45353;-81
2021/12/22 04:12:24;;;;;;;;;34.00;32.25;;;;;4.75;55.02;101995.59;6094082;23;45435;-80
2021/12/22 04:14:49;;;;;;;;;30.50;28.25;;;;;4.85;55.03;102015.88;6094335;23;45185;-80
2021/12/22 04:17:14;;;;;;;;;36.75;31.25;;;;;4.96;54.89;102031.69;6067266;23;45320;-80
2021/12/22 04:19:40;;;;;;;;;39.50;34.75;;;;;4.82;54.58;102016.75;6094865;23;45443;-80
2021/12/22 04:22:06;;;;;;;;;39.75;35.25;;;;;4.67;54.51;101997.38;6094594;23;46414;-80
2021/12/22 04:24:32;;;;;;;;;46.50;37.00;;;;;4.85;55.16;102037.00;6093316;23;45347;-80
2021/12/22 04:26:57;;;;;;;;;32.00;28.00;;;;;4.80;54.95;102031.72;6094491;23;45601;-80
2021/12/22 04:29:23;;;;;;;;;33.25;32.75;;;;;4.80;55.19;102028.16;6094914;23;45335;-80
2021/12/22 04:31:48;;;;;;;;;42.00;34.25;;;;;4.73;54.87;102011.47;6093961;23;46044;-80
2021/12/22 04:34:14;;;;;;;;;41.00;35.00;;;;;4.47;55.00;101968.28;6094203;23;45347;-80
2021/12/22 04:36:40;;;;;;;;;33.00;29.50;;;;;4.85;54.99;102037.00;6094390;23;45363;-80
2021/12/22 04:39:08;;;;;;;;;40.75;34.75;;;;;4.83;55.16;102036.13;6093862;23;45336;-80
2021/12/22 04:41:33;;;;;;;;;38.25;34.50;;;;;4.80;54.71;102044.91;6067031;23;47168;-80
2021/12/22 04:43:58;;;;;;;;;41.00;33.75;;;;;4.78;54.81;102044.03;6094370;23;45245;-80
2021/12/22 04:46:24;;;;;;;;;33.75;32.75;;;;;4.56;54.75;102016.69;6093495;23;45327;-80
2021/12/22 04:48:50;;;;;;;;;41.00;31.00;;;;;4.66;54.77;102033.47;6094851;23;45332;-80
2021/12/22 04:51:27;;;;;;;;;37.00;32.50;;;;;4.58;54.77;102007.03;6093848;23;46495;-80
2021/12/22 04:54:47;;;;;;;;;38.00;33.75;;;;;4.78;55.25;102040.50;6093776;23;45319;-80
2021/12/22 04:56:42;;;;;;;;;42.50;35.75;;;;;4.70;55.18;102013.19;6085575;23;45393;-80
2021/12/22 04:59:08;;;;;;;;;30.75;30.50;;;;;4.60;54.62;102009.69;6094695;23;45275;-80
2021/12/22 05:01:34;;;;;;;;;42.00;34.75;;;;;4.82;54.86;102043.16;6093103;23;46209;-80
2021/12/22 05:03:59;;;;;;;;;35.00;30.50;;;;;4.64;54.91;102011.44;6093540;23;45243;-80
2021/12/22 05:06:24;;;;;;;;;45.25;35.00;;;;;4.80;54.48;102036.09;6067600;23;45374;-80
2021/12/22 05:08:51;;;;;;;;;42.75;36.75;;;;;4.53;54.90;101989.44;6095678;23;45374;-80
2021/12/22 05:11:17;;;;;;;;;38.00;33.50;;;;;4.76;54.92;102018.50;6094648;23;46085;-80
2021/12/22 05:13:42;;;;;;;;;40.75;35.25;;;;;4.59;54.72;101986.81;6093429;23;45391;-80
2021/12/22 05:16:15;;;;;;;;;38.00;35.75;;;;;4.73;55.38;102008.81;6094800;23;45192;-81
2021/12/22 05:19:10;;;;;;;;;39.00;34.25;;;;;4.77;55.14;102010.56;6094216;23;45260;-80
2021/12/22 05:21:36;;;;;;;;;27.25;23.25;;;;;4.65;55.25;101990.31;6093872;23;45472;-80
2021/12/22 05:24:02;;;;;;;;;31.50;28.75;;;;;4.59;55.05;101973.59;6094428;23;45312;-80
2021/12/22 05:26:28;;;;;;;;;38.25;35.50;;;;;4.53;54.72;101955.09;6093590;23;45335;-81
2021/12/22 05:28:54;;;;;;;;;39.25;33.50;;;;;4.82;54.92;102010.56;6093820;23;45403;-80
2021/12/22 05:31:21;;;;;;;;;36.25;34.75;;;;;4.88;54.46;102017.63;6094559;23;45367;-80
2021/12/22 05:33:46;;;;;;;;;35.50;34.75;;;;;4.65;54.62;101979.75;6093853;23;45496;-80
2021/12/22 05:36:11;;;;;;;;;40.00;32.25;;;;;4.75;54.46;102001.78;6094822;23;45795;-80
2021/12/22 05:38:37;;;;;;;;;37.25;32.25;;;;;4.83;54.37;102009.69;6094192;23;45328;-80
2021/12/22 05:41:03;;;;;;;;;33.50;30.50;;;;;4.85;54.60;102013.22;6094503;23;46097;-80
2021/12/22 05:43:28;;;;;;;;;34.50;29.25;;;;;4.55;54.47;101950.72;6067993;23;45365;-80
2021/12/22 05:45:54;;;;;;;;;40.00;31.25;;;;;4.78;54.60;101992.97;6094636;23;45392;-80
2021/12/22 05:48:20;;;;;;;;;34.75;27.75;;;;;4.79;54.56;101994.72;6094482;23;45303;-80
2021/12/22 05:50:50;;;;;;;;;27.25;22.25;;;;;4.88;54.29;102013.22;6067108;23;46285;-80
2021/12/22 05:53:16;;;;;;;;;39.50;34.75;;;;;4.89;54.25;102017.59;6093839;23;45299;-80
2021/12/22 05:55:41;;;;;;;;;34.00;31.75;;;;;4.94;54.60;102026.44;6093256;23;45342;-80
2021/12/22 05:58:07;;;;;;;;;39.00;34.75;;;;;4.91;54.68;102010.56;6093673;23;45459;-80
2021/12/22 06:00:32;;;;;;;;;41.50;32.25;;;;;4.91;54.58;102013.22;6093618;23;45540;-80
2021/12/22 06:02:57;;;;;;;;;35.50;31.00;;;;;5.00;54.28;102025.53;6093302;23;45403;-80
2021/12/22 06:05:23;;;;;;;;;36.00;31.25;;;;;5.01;54.68;102033.50;6094519;23;45468;-80
2021/12/22 06:07:48;;;;;;;;;36.75;30.50;;;;;4.79;54.72;101998.25;6095060;23;45602;-80
2021/12/22 06:10:14;;;;;;;;;37.00;34.00;;;;;4.83;54.45;101984.16;6094533;23;45494;-80
2021/12/22 06:12:39;;;;;;;;;40.75;33.75;;;;;5.02;54.19;102018.50;6094419;23;45668;-80
2021/12/22 06:15:05;;;;;;;;;33.00;30.75;;;;;4.49;54.58;101932.22;6095184;23;45295;-80
2021/12/22 06:17:30;;;;;;;;;39.00;32.00;;;;;4.94;54.30;102037.00;6095123;23;45328;-80
2021/12/22 06:19:56;;;;;;;;;39.25;34.50;;;;;4.87;54.41;102029.97;6094637;23;46024;-80
2021/12/22 06:22:23;;;;;;;;;38.75;31.50;;;;;4.79;54.39;102023.78;6095097;23;45348;-80
2021/12/22 06:24:49;;;;;;;;;41.00;30.00;;;;;4.75;53.93;102024.66;6094854;23;45399;-81
2021/12/22 06:27:14;;;;;;;;;32.00;29.00;;;;;4.69;54.28;102030.81;6095240;23;45262;-81
2021/12/22 06:29:40;;;;;;;;;37.50;33.00;;;;;4.21;54.34;101972.66;6094120;23;45343;-80
2021/12/22 06:32:06;;;;;;;;;38.25;32.00;;;;;4.36;55.15;102002.59;6094528;23;45282;-81
2021/12/22 06:34:31;;;;;;;;;41.50;31.25;;;;;4.29;55.23;101990.28;6094743;23;45383;-81
2021/12/22 06:36:57;;;;;;;;;37.00;31.00;;;;;4.26;55.01;102004.34;6095489;23;45302;-81
2021/12/22 06:39:22;;;;;;;;;36.00;30.75;;;;;4.36;55.02;102023.72;6094484;23;46141;-81
2021/12/22 06:41:48;;;;;;;;;36.75;31.00;;;;;4.26;54.98;102003.44;6094545;23;45366;-81
2021/12/22 06:44:14;;;;;;;;;41.75;34.50;;;;;4.17;55.44;101999.91;6094994;23;45328;-81
2021/12/22 06:46:41;;;;;;;;;40.75;35.50;;;;;4.31;55.09;102030.72;6095503;23;45117;-80
2021/12/22 06:49:07;;;;;;;;;31.00;28.75;;;;;4.48;55.39;102050.13;6094994;23;45324;-81
2021/12/22 06:51:33;;;;;;;;;38.25;34.00;;;;;4.38;54.76;102033.41;6093828;23;45450;-80
2021/12/22 06:53:58;;;;;;;;;47.75;34.25;;;;;3.97;54.86;101952.34;6094851;23;45360;-80
2021/12/22 06:56:24;;;;;;;;;37.50;34.25;;;;;4.40;54.77;102013.16;6094760;23;45400;-80
2021/12/22 06:58:49;;;;;;;;;40.50;33.50;;;;;4.60;55.02;102046.63;6067927;23;47907;-81
2021/12/22 07:01:18;;;;;;;;;40.25;34.25;;;;;4.66;55.07;102041.38;6093756;23;45371;-81
2021/12/22 07:03:44;;;;;;;;;29.75;27.00;;;;;4.74;54.92;102036.09;6094035;23;45888;-81
2021/12/22 07:06:10;;;;;;;;;41.50;35.75;;;;;4.49;54.60;101980.59;6094155;23;45316;-80
2021/12/22 07:08:35;;;;;;;;;36.75;31.25;;;;;4.75;54.47;102032.56;6093434;23;46080;-80
2021/12/22 07:11:00;;;;;;;;;31.00;28.75;;;;;4.67;54.44;102015.84;6094321;23;45439;-80
2021/12/22 07:13:26;;;;;;;;;48.00;33.50;;;;;4.68;54.64;102012.31;6094010;23;45686;-81
2021/12/22 07:15:51;;;;;;;;;34.25;33.50;;;;;4.60;54.21;102000.00;6094733;23;45400;-81
2021/12/22 07:18:16;;;;;;;;;34.00;30.50;;;;;4.67;54.50;102006.16;6094965;23;45275;-81
2021/12/22 07:20:42;;;;;;;;;32.75;31.25;;;;;4.67;54.53;102005.28;6094531;23;45341;-81
2021/12/22 07:23:07;;;;;;;;;36.00;35.00;;;;;4.79;54.01;102026.41;6095220;23;45612;-80
2021/12/22 07:25:33;;;;;;;;;37.50;33.25;;;;;4.82;53.75;102031.69;6094597;23;45558;-82
2021/12/22 07:27:58;;;;;;;;;41.00;35.00;;;;;4.78;54.46;102030.81;6093739;23;45310;-82
2021/12/22 07:30:24;;;;;;;;;62.00;49.75;;;;;4.80;54.16;102042.28;6092496;23;45371;-81
2021/12/22 07:32:50;;;;;;;;;39.25;34.25;;;;;4.79;54.34;102035.22;6094869;23;45362;-82
2021/12/22 07:35:22;;;;;;;;;48.25;35.50;;;;;4.77;53.66;102030.81;6094408;23;45262;-82
2021/12/22 07:38:19;;;;;;;;;42.00;33.75;;;;;4.45;53.87;102005.25;6093522;23;45296;-81
2021/12/22 07:40:44;;;;;;;;;43.75;37.25;;;;;4.54;54.49;102030.78;6060965;23;45481;-81
2021/12/22 07:43:09;;;;;;;;;47.00;37.00;;;;;4.05;54.52;101957.66;6062870;23;45396;-82
2021/12/22 07:45:35;;;;;;;;;51.75;35.50;;;;;4.53;54.63;102034.31;6062327;23;45316;-82
2021/12/22 07:48:00;;;;;;;;;38.00;35.50;;;;;4.23;54.37;101983.19;6062713;23;45430;-82
2021/12/22 07:50:25;;;;;;;;;36.00;30.75;;;;;4.18;54.36;101971.75;6062459;23;45255;-83
2021/12/22 07:52:51;;;;;;;;;37.50;33.00;;;;;4.44;54.35;102019.31;6062418;23;45399;-81
2021/12/22 07:55:16;;;;;;;;;37.25;32.50;;;;;4.36;54.47;102008.75;6038679;23;45253;-81
2021/12/22 07:57:41;;;;;;;;;42.50;33.75;;;;;4.37;54.36;102004.34;6062111;23;45994;-81
2021/12/22 08:00:07;;;;;;;;;37.25;29.50;;;;;4.60;54.18;102042.22;6062174;23;45426;-81
2021/12/22 08:02:33;;;;;;;;;33.75;29.00;;;;;4.36;53.86;102003.47;6062029;23;45425;-82
2021/12/22 08:04:58;;;;;;;;;33.50;31.25;;;;;4.67;53.65;102052.81;6063107;23;45564;-81
2021/12/22 08:07:24;;;;;;;;;38.75;35.50;;;;;4.44;53.86;102016.69;6061919;23;54467;-82
2021/12/22 08:09:49;;;;;;;;;38.25;35.00;;;;;4.57;53.88;102034.31;6037111;23;45452;-83
2021/12/22 08:12:14;;;;;;;;;36.00;33.25;;;;;4.41;54.16;101987.66;6037802;23;45527;-81
2021/12/22 08:14:40;;;;;;;;;50.25;39.50;;;;;4.78;54.07;102038.75;6062891;23;45450;-84
2021/12/22 08:17:08;;;;;;;;;41.50;35.00;;;;;4.72;53.68;102022.00;6070037;23;46021;-84
2021/12/22 08:19:34;;;;;;;;;39.25;35.75;;;;;4.70;53.84;102022.00;6094600;23;45508;-82
2021/12/22 08:21:59;;;;;;;;;50.75;37.00;;;;;4.76;53.98;102029.94;6094596;23;45380;-81
2021/12/22 08:24:25;;;;;;;;;38.75;34.25;;;;;4.76;53.42;102040.50;6095159;23;45557;-79
2021/12/22 08:26:51;;;;;;;;;40.25;32.00;;;;;4.73;54.08;102035.22;6093465;23;45843;-80
2021/12/22 08:29:18;;;;;;;;;35.25;32.00;;;;;4.70;53.84;102027.28;6090471;23;45291;-80
2021/12/22 08:31:43;;;;;;;;;43.00;35.25;;;;;4.78;53.90;102040.50;6091007;23;45475;-80
2021/12/22 08:34:10;;;;;;;;;45.50;37.00;;;;;4.65;53.73;102008.78;6090223;23;45470;-80
2021/12/22 08:39:22;;;;;;;;;40.50;34.75;;;;;4.80;54.06;102014.97;6092308;23;45327;-80
2021/12/22 08:41:48;;;;;;;;;41.00;35.00;;;;;4.68;53.95;102004.41;6092178;23;45416;-79
2021/12/22 08:44:16;;;;;;;;;37.75;34.25;;;;;4.88;53.76;102038.75;6092886;23;45351;-80
2021/12/22 08:46:46;;;;;;;;;44.50;36.75;;;;;4.78;53.54;102003.53;6091710;23;45422;-80
2021/12/22 08:49:12;;;;;;;;;43.50;36.50;;;;;4.82;53.31;101997.34;6090504;23;45442;-80
2021/12/22 08:51:38;;;;;;;;;39.00;33.75;;;;;4.81;53.59;101991.19;6091396;23;45388;-79
2021/12/22 08:54:03;;;;;;;;;46.25;36.75;;;;;4.88;53.32;102007.94;6091988;23;45765;-79
2021/12/22 08:56:29;;;;;;;;;49.00;37.75;;;;;4.89;53.84;101999.13;6090932;23;45499;-79
2021/12/22 08:58:55;;;;;;;;;47.25;38.00;;;;;4.72;53.99;101978.00;6092064;23;45390;-80
2021/12/22 09:01:21;;;;;;;;;42.75;37.25;;;;;4.88;54.15;102005.28;6091795;23;45441;-80
2021/12/22 09:03:47;;;;;;;;;44.50;37.00;;;;;4.88;53.91;101999.13;6091540;23;45749;-82
2021/12/22 09:06:13;;;;;;;;;36.50;34.25;;;;;4.78;53.86;101985.06;6064523;23;46478;-79
2021/12/22 09:08:42;;;;;;;;;38.00;34.50;;;;;4.73;54.05;101968.31;6092220;23;45626;-80
2021/12/22 09:11:09;;;;;;;;;47.00;38.50;;;;;4.97;53.58;102015.88;6090969;23;45594;-79
2021/12/22 09:13:37;;;;;;;;;44.50;37.75;;;;;4.97;53.69;102015.00;6091949;23;45387;-80
2021/12/22 09:16:04;;;;;;;;;43.75;37.00;;;;;4.96;53.77;102007.94;6090958;23;46019;-81
2021/12/22 09:18:29;;;;;;;;;40.50;33.75;;;;;5.00;54.16;102005.28;6066506;23;45523;-81
2021/12/22 09:20:55;;;;;;;;;45.00;37.25;;;;;5.02;53.59;102003.53;6063952;23;45396;-81
2021/12/22 09:23:21;;;;;;;;;36.50;30.25;;;;;4.81;53.33;101972.72;6092706;23;45359;-80
2021/12/22 09:25:46;;;;;;;;;41.75;34.75;;;;;4.77;53.58;101975.34;6092192;23;46220;-79
2021/12/22 09:28:14;;;;;;;;;39.50;34.75;;;;;4.81;53.36;101985.03;6090296;23;45351;-80
2021/12/22 09:30:41;;;;;;;;;52.00;37.50;;;;;4.82;53.06;101987.69;6091642;23;45609;-80
2021/12/22 09:33:11;;;;;;;;;40.50;34.25;;;;;4.86;53.05;101988.56;6092084;23;45699;-80
2021/12/22 09:35:37;;;;;;;;;36.50;31.50;;;;;5.05;53.28;102015.84;6091141;23;45498;-80
2021/12/22 09:38:03;;;;;;;;;39.00;37.00;;;;;4.90;53.17;101989.47;6092064;23;45789;-83
2021/12/22 09:40:28;;;;;;;;;37.75;30.50;;;;;5.05;52.83;102019.38;6093083;23;45285;-83
2021/12/22 09:42:53;;;;;;;;;36.50;32.25;;;;;4.98;53.22;102004.41;6091707;23;45502;-85
2021/12/22 09:45:22;;;;;;;;;45.75;34.75;;;;;4.87;53.62;102006.19;6064200;23;46838;-85
2021/12/22 09:53:25;;;;;;;;;52.00;34.75;;;;;4.95;53.44;102009.69;6092703;23;45211;-81
2021/12/22 09:55:51;;;;;;;;;54.75;40.75;;;;;4.87;53.36;101985.06;6092025;23;45339;-82
2021/12/22 09:58:17;;;;;;;;;47.75;37.50;;;;;4.79;53.18;101979.75;6092617;23;45347;-83
2021/12/22 10:00:44;;;;;;;;;40.50;33.50;;;;;5.14;53.57;102034.34;6091650;23;45374;-82
2021/12/22 10:03:11;;;;;;;;;53.75;38.00;;;;;4.95;53.55;101983.28;6093713;23;45324;-84
2021/12/22 10:05:41;;;;;;;;;42.25;35.75;;;;;5.25;53.75;102029.06;6092206;23;45655;-85
2021/12/22 10:08:10;;;;;;;;;42.25;35.00;;;;;5.32;53.15;102022.88;6067498;23;46465;-83
2021/12/22 10:10:39;;;;;;;;;45.00;37.50;;;;;5.38;53.18;102014.94;6094581;23;45423;-86
2021/12/22 10:13:12;;;;;;;;;45.00;36.75;;;;;4.93;52.57;101947.19;6095610;23;45340;-86
2021/12/22 10:15:39;;;;;;;;;48.25;36.50;;;;;5.41;52.97;102016.72;6094720;23;45383;-85
2021/12/22 10:18:13;;;;;;;;;51.50;40.25;;;;;5.45;52.91;102023.72;6095646;23;45492;-85
2021/12/22 10:20:41;;;;;;;;;41.50;35.50;;;;;5.44;52.39;102003.47;6095328;23;45767;-85
2021/12/22 10:23:36;;;;;;;;;41.75;33.75;;;;;5.55;52.63;102020.22;6069808;23;45459;-85
2021/12/22 10:26:07;;;;;;;;;37.50;34.00;;;;;5.61;52.36;102020.19;6086396;23;46151;-86
2021/12/22 10:29:00;;;;;;;;;41.25;36.50;;;;;5.47;52.75;102004.34;6096930;23;45323;-86
2021/12/22 10:31:33;;;;;;;;;42.00;34.00;;;;;5.51;52.26;101994.66;6092534;23;45287;-83
2021/12/22 10:34:03;;;;;;;;;50.00;39.75;;;;;5.67;52.52;102012.22;6066602;23;45534;-85
2021/12/22 10:36:29;;;;;;;;;48.00;39.25;;;;;5.62;52.26;101994.59;6065946;23;46972;-83
2021/12/22 10:39:00;;;;;;;;;46.00;36.50;;;;;5.77;52.13;102015.72;6092983;23;45323;-83
2021/12/22 10:41:29;;;;;;;;;44.50;37.25;;;;;5.66;52.07;101997.22;6092965;23;45371;-84
2021/12/22 10:43:55;;;;;;;;;53.00;39.25;;;;;5.71;52.40;102008.69;6090025;23;45487;-82
2021/12/22 10:46:32;;;;;;;;;42.00;37.25;;;;;5.74;52.23;101991.06;6089910;23;46615;-83
2021/12/22 10:49:15;;;;;;;;;48.50;38.25;;;;;5.72;52.10;101986.63;6091277;23;45585;-83
2021/12/22 10:51:43;;;;;;;;;53.00;41.50;;;;;5.72;52.18;101973.41;6091570;23;45367;-83
2021/12/22 10:54:11;;;;;;;;;51.75;42.75;;;;;5.72;51.94;101968.13;6092492;23;45352;-82
2021/12/22 10:56:40;;;;;;;;;60.25;46.25;;;;;5.77;52.26;101968.09;6092358;23;45987;-82
2021/12/22 10:59:14;;;;;;;;;59.50;45.75;;;;;5.63;52.04;101928.47;6092425;23;45445;-83
2021/12/22 11:02:07;;;;;;;;;56.00;41.50;;;;;5.84;51.92;101956.59;6093401;23;45310;-83
2021/12/22 11:04:34;;;;;;;;;49.75;41.50;;;;;5.69;51.74;101919.66;6092897;23;45445;-83
2021/12/22 11:07:23;;;;;;;;;52.75;40.00;;;;;6.03;51.89;101962.72;6092910;23;46066;-82
2021/12/22 11:09:49;;;;;;;;;52.75;43.50;;;;;6.01;51.98;101966.25;6093302;23;45253;-83
2021/12/22 11:12:17;;;;;;;;;46.75;38.00;;;;;5.67;51.89;101909.09;6093251;23;45511;-83
2021/12/22 11:14:47;;;;;;;;;48.75;41.75;;;;;5.99;51.21;101957.44;6094275;23;45397;-84
2021/12/22 11:17:21;;;;;;;;;49.00;40.00;;;;;5.71;51.54;101897.59;6091638;23;45295;-79
2021/12/22 11:20:04;;;;;;;;;56.00;43.00;;;;;6.09;51.12;101948.59;6092702;23;45283;-84
2021/12/22 11:22:51;;;;;;;;;52.25;43.00;;;;;6.11;51.37;101949.44;6093410;23;45319;-85
2021/12/22 11:25:17;;;;;;;;;52.25;39.00;;;;;6.06;51.03;101941.56;6093916;23;45489;-88
2021/12/22 11:27:43;;;;;;;;;46.00;40.00;;;;;5.85;51.28;101896.63;6093472;23;45846;-87
2021/12/22 11:30:09;;;;;;;;;127.67;115.33;;;;;6.01;51.25;101914.22;6092933;23;45327;-88
2021/12/22 11:32:35;;;;;;;;;70.00;52.50;;;;;5.74;51.37;101882.63;6091939;23;45272;-89